Time;durP1;ratioP1;P1;durP2;ratioP2;P2;SDS_P1;SDS_P2;PMS_P1;PMS_P2;Temp;Humidity;BMP_temperature;BMP_pressure;BME280_temperature;BME280_humidity;BME280_pressure;Samples;Min_cycle;Max_cycle;Signal;HPM_P1;HPM_P2
2023/10/29 00:00:28;;;;;;;4.83;3.17;;;18.90;72.90;;;;;;4967687;29;20502;-80
2023/10/29 00:02:57;;;;;;;2.90;2.70;;;18.90;72.80;;;;;;4975267;28;20467;-79
2023/10/29 00:05:26;;;;;;;3.43;3.00;;;18.90;72.90;;;;;;4967770;28;20453;-79
2023/10/29 00:07:54;;;;;;;2.63;2.43;;;18.90;72.80;;;;;;4967498;28;20455;-79
2023/10/29 00:10:23;;;;;;;3.10;2.80;;;18.90;72.70;;;;;;4968016;28;20487;-79
2023/10/29 00:12:51;;;;;;;3.10;2.40;;;18.90;72.50;;;;;;4965668;28;20474;-80
2023/10/29 00:15:19;;;;;;;2.73;2.53;;;18.80;72.90;;;;;;4966030;28;20461;-79
2023/10/29 00:17:49;;;;;;;3.57;2.70;;;18.90;73.00;;;;;;4964838;28;20455;-80
2023/10/29 00:20:17;;;;;;;2.73;2.20;;;18.90;73.20;;;;;;4966911;28;20454;-79
2023/10/29 00:22:46;;;;;;;2.60;2.40;;;18.90;72.90;;;;;;4972149;28;20521;-79
2023/10/29 00:25:13;;;;;;;3.80;2.77;;;18.90;73.00;;;;;;4969301;28;20451;-80
2023/10/29 00:27:43;;;;;;;2.67;2.47;;;18.90;72.90;;;;;;4967835;28;20477;-79
2023/10/29 00:30:12;;;;;;;5.00;2.47;;;18.90;72.90;;;;;;4972892;28;20479;-79
2023/10/29 00:32:40;;;;;;;6.83;2.57;;;18.90;72.70;;;;;;4974269;28;20463;-80
2023/10/29 00:35:10;;;;;;;2.97;2.67;;;18.90;72.90;;;;;;4966219;28;20455;-79
2023/10/29 00:37:38;;;;;;;5.23;2.13;;;18.90;73.10;;;;;;4968898;28;20447;-80
2023/10/29 00:40:08;;;;;;;2.70;2.50;;;18.90;73.00;;;;;;4961053;29;20482;-80
2023/10/29 00:42:36;;;;;;;2.67;2.20;;;18.90;73.20;;;;;;4961889;28;20485;-80
2023/10/29 00:45:06;;;;;;;2.57;2.37;;;18.90;73.10;;;;;;4965711;28;20454;-80
2023/10/29 00:47:34;;;;;;;2.80;2.60;;;18.90;72.80;;;;;;4983315;28;20459;-79
2023/10/29 00:50:03;;;;;;;2.60;2.40;;;18.90;72.60;;;;;;4976059;28;20443;-79
2023/10/29 00:52:31;;;;;;;2.53;2.17;;;18.90;73.20;;;;;;4983850;28;20481;-79
2023/10/29 00:54:59;;;;;;;2.50;2.30;;;18.90;73.00;;;;;;4965830;28;20942;-80
2023/10/29 00:57:28;;;;;;;3.20;2.67;;;18.90;73.10;;;;;;4964060;28;20443;-79
2023/10/29 00:59:56;;;;;;;2.63;2.37;;;18.90;72.90;;;;;;4970812;28;20547;-79
2023/10/29 01:02:25;;;;;;;2.47;2.27;;;18.90;72.90;;;;;;4958901;28;20586;-79
2023/10/29 01:04:53;;;;;;;2.20;2.00;;;18.90;73.10;;;;;;4961046;28;20447;-79
2023/10/29 01:07:21;;;;;;;2.50;2.30;;;18.90;72.50;;;;;;4963183;28;20485;-79
2023/10/29 01:09:50;;;;;;;2.50;2.40;;;18.90;73.00;;;;;;4971323;28;20450;-79
2023/10/29 01:12:18;;;;;;;2.50;2.37;;;18.90;72.90;;;;;;4964218;28;20467;-79
2023/10/29 01:14:46;;;;;;;3.20;2.60;;;18.90;72.90;;;;;;4973306;28;20458;-79
2023/10/29 01:17:14;;;;;;;3.27;2.50;;;18.90;72.70;;;;;;4964891;28;20498;-80
2023/10/29 01:19:43;;;;;;;2.47;2.20;;;18.90;72.90;;;;;;4964038;28;20439;-80
2023/10/29 01:22:11;;;;;;;2.40;2.23;;;18.90;72.70;;;;;;4963288;28;20479;-80
2023/10/29 01:24:39;;;;;;;2.17;1.97;;;18.90;73.20;;;;;;4969191;28;20486;-79
2023/10/29 01:27:07;;;;;;;2.73;2.17;;;18.90;73.00;;;;;;4962155;28;20447;-80
2023/10/29 01:29:36;;;;;;;2.10;2.00;;;18.90;72.70;;;;;;4963775;28;20482;-80
2023/10/29 01:32:04;;;;;;;2.60;2.20;;;18.90;73.20;;;;;;4964863;28;20554;-79
2023/10/29 01:34:32;;;;;;;2.33;2.20;;;18.90;73.20;;;;;;4965776;28;20516;-80
2023/10/29 01:37:02;;;;;;;2.10;2.00;;;19.00;72.80;;;;;;4967517;28;20504;-79
2023/10/29 01:39:30;;;;;;;2.40;2.20;;;18.90;72.50;;;;;;4963527;29;20518;-79
2023/10/29 01:41:58;;;;;;;2.00;1.90;;;18.90;73.10;;;;;;4965973;28;20541;-79
2023/10/29 01:44:26;;;;;;;2.80;2.07;;;18.90;72.80;;;;;;4967222;28;20439;-79
2023/10/29 01:46:54;;;;;;;2.50;2.30;;;18.90;73.10;;;;;;4962359;28;20455;-79
2023/10/29 01:49:22;;;;;;;2.47;1.90;;;18.90;72.80;;;;;;4963069;29;20448;-78
2023/10/29 01:51:50;;;;;;;2.10;1.90;;;18.90;73.10;;;;;;4964172;28;20463;-79
2023/10/29 01:54:20;;;;;;;1.97;1.70;;;19.00;73.30;;;;;;4956988;28;20455;-79
2023/10/29 01:56:48;;;;;;;2.00;1.90;;;19.00;72.90;;;;;;4958529;28;20534;-79
2023/10/29 01:59:16;;;;;;;1.77;1.67;;;19.00;73.20;;;;;;4956423;28;20447;-79
2023/10/29 02:01:45;;;;;;;1.97;1.87;;;19.00;73.00;;;;;;4961904;28;20459;-79
2023/10/29 02:04:13;;;;;;;2.10;1.90;;;19.00;73.20;;;;;;4960874;28;20501;-77
2023/10/29 02:06:41;;;;;;;2.13;1.93;;;19.00;73.20;;;;;;4961666;28;20451;-78
2023/10/29 02:09:10;;;;;;;2.00;1.80;;;19.00;72.90;;;;;;4951751;28;20487;-78
2023/10/29 02:11:39;;;;;;;1.90;1.80;;;19.00;72.90;;;;;;4956054;28;20522;-78
2023/10/29 02:14:07;;;;;;;2.40;2.20;;;19.00;73.20;;;;;;4961838;28;20471;-78
2023/10/29 02:16:35;;;;;;;1.90;1.80;;;19.00;73.30;;;;;;4957363;29;20447;-78
2023/10/29 02:19:04;;;;;;;1.90;1.80;;;19.00;73.00;;;;;;4956638;28;20443;-78
2023/10/29 02:21:32;;;;;;;2.13;1.50;;;19.00;73.20;;;;;;4956581;28;20467;-78
2023/10/29 02:24:01;;;;;;;1.87;1.77;;;19.00;73.10;;;;;;4949771;29;20502;-78
2023/10/29 02:26:29;;;;;;;1.83;1.73;;;19.00;73.00;;;;;;4958246;28;20451;-78
2023/10/29 02:28:57;;;;;;;1.70;1.60;;;19.00;73.20;;;;;;4960439;28;20459;-78
2023/10/29 02:31:25;;;;;;;1.90;1.80;;;19.00;73.10;;;;;;4959173;28;20502;-77
2023/10/29 02:33:54;;;;;;;2.17;2.00;;;19.00;73.10;;;;;;4961229;28;20454;-79
2023/10/29 02:36:22;;;;;;;2.10;2.00;;;19.10;73.20;;;;;;4959139;28;20498;-78
2023/10/29 02:38:50;;;;;;;1.73;1.63;;;19.10;73.30;;;;;;4956754;29;20447;-78
2023/10/29 02:41:19;;;;;;;1.80;1.70;;;19.00;73.10;;;;;;4969907;28;20457;-79
2023/10/29 02:43:47;;;;;;;2.20;2.10;;;19.00;73.20;;;;;;4965926;28;20470;-79
2023/10/29 02:46:16;;;;;;;1.63;1.53;;;19.10;73.10;;;;;;4974154;28;20553;-77
2023/10/29 02:48:45;;;;;;;1.80;1.70;;;19.10;73.40;;;;;;4970114;28;20509;-79
2023/10/29 02:51:13;;;;;;;2.10;1.90;;;19.10;73.30;;;;;;4968967;28;20446;-79
2023/10/29 02:53:40;;;;;;;2.50;1.93;;;19.00;73.40;;;;;;4979196;28;20447;-78
2023/10/29 02:56:08;;;;;;;2.07;1.90;;;19.00;73.30;;;;;;4979232;28;20453;-78
2023/10/29 02:58:38;;;;;;;2.10;1.90;;;19.10;73.30;;;;;;4980418;28;20462;-78
2023/10/29 03:01:07;;;;;;;3.80;2.40;;;19.00;73.20;;;;;;4964440;28;20536;-79
2023/10/29 03:03:36;;;;;;;1.93;1.83;;;19.10;73.40;;;;;;4975759;28;20471;-79
2023/10/29 03:06:06;;;;;;;2.73;2.57;;;19.00;73.40;;;;;;4963411;28;20439;-79
2023/10/29 03:08:34;;;;;;;2.60;2.40;;;19.10;73.60;;;;;;4967634;29;20506;-79
2023/10/29 03:11:02;;;;;;;2.57;2.37;;;19.10;73.40;;;;;;4963237;28;20455;-79
2023/10/29 03:13:30;;;;;;;3.53;2.30;;;19.10;73.60;;;;;;4974322;28;20490;-79
2023/10/29 03:15:59;;;;;;;2.43;2.23;;;19.10;73.30;;;;;;4972016;28;20438;-78
2023/10/29 03:18:29;;;;;;;4.73;2.77;;;19.10;73.30;;;;;;4974048;28;20431;-78
2023/10/29 03:20:57;;;;;;;2.73;2.53;;;19.10;73.30;;;;;;4968459;28;20439;-79
2023/10/29 03:23:25;;;;;;;3.13;2.83;;;19.10;73.50;;;;;;4969986;28;20505;-79
2023/10/29 03:25:53;;;;;;;2.70;2.50;;;19.10;73.50;;;;;;4977811;28;20471;-79
2023/10/29 03:28:22;;;;;;;2.60;2.40;;;19.10;73.40;;;;;;4979302;28;20438;-78
2023/10/29 03:30:49;;;;;;;2.63;2.20;;;19.10;73.40;;;;;;4973695;28;20451;-78
2023/10/29 03:33:19;;;;;;;2.33;2.20;;;19.10;73.40;;;;;;4968658;28;20643;-79
2023/10/29 03:35:47;;;;;;;3.00;2.70;;;19.10;73.50;;;;;;4969656;28;20435;-78
2023/10/29 03:38:15;;;;;;;3.10;2.77;;;19.10;73.30;;;;;;4964925;28;20451;-78
2023/10/29 03:40:43;;;;;;;2.40;2.10;;;19.10;73.50;;;;;;4965799;28;20454;-78
2023/10/29 03:43:12;;;;;;;3.00;2.70;;;19.10;73.60;;;;;;4958845;29;20501;-79
2023/10/29 03:45:40;;;;;;;2.70;2.50;;;19.20;73.40;;;;;;4971142;28;20447;-78
2023/10/29 03:48:08;;;;;;;2.77;2.57;;;19.10;73.30;;;;;;4967396;28;20470;-78
2023/10/29 03:50:59;;;;;;;2.77;2.50;;;19.20;73.40;;;;;;4974410;28;20474;-78
2023/10/29 03:53:44;;;;;;;3.60;2.53;;;19.20;73.70;;;;;;4955982;28;20446;-79
2023/10/29 03:56:13;;;;;;;2.60;2.50;;;19.20;73.60;;;;;;4967605;28;20478;-78
2023/10/29 03:58:45;;;;;;;2.70;2.50;;;19.10;73.50;;;;;;4964898;28;20475;-78
2023/10/29 04:01:14;;;;;;;2.77;2.57;;;19.10;73.70;;;;;;4965096;28;20462;-78
2023/10/29 04:03:52;;;;;;;3.87;2.93;;;19.10;73.60;;;;;;4970624;28;20485;-78
2023/10/29 04:06:24;;;;;;;2.47;2.27;;;19.20;73.70;;;;;;4959768;28;20454;-78
2023/10/29 04:08:52;;;;;;;4.67;2.63;;;19.20;73.40;;;;;;4977655;28;20478;-79
2023/10/29 04:11:21;;;;;;;2.33;2.20;;;19.10;73.40;;;;;;4959709;28;20459;-78
2023/10/29 04:13:49;;;;;;;2.30;2.20;;;19.10;73.60;;;;;;4964321;28;20443;-79
2023/10/29 04:16:19;;;;;;;2.23;2.13;;;19.20;73.70;;;;;;4973355;28;20450;-79
2023/10/29 04:18:50;;;;;;;2.23;2.03;;;19.10;73.40;;;;;;4974091;28;20454;-78
2023/10/29 04:21:18;;;;;;;2.47;2.27;;;19.20;73.70;;;;;;4971664;28;20455;-78
2023/10/29 04:23:48;;;;;;;2.20;2.10;;;19.10;73.60;;;;;;4967561;28;20529;-79
2023/10/29 04:26:16;;;;;;;3.20;2.20;;;19.20;73.70;;;;;;4957335;28;20515;-78
2023/10/29 04:28:45;;;;;;;2.80;2.20;;;19.10;73.40;;;;;;4966608;28;20474;-78
2023/10/29 04:31:15;;;;;;;2.13;2.00;;;19.10;73.70;;;;;;4952825;28;20450;-79
2023/10/29 04:33:45;;;;;;;2.57;2.37;;;19.20;73.90;;;;;;4979644;28;20457;-78
2023/10/29 04:36:20;;;;;;;2.70;2.00;;;19.20;73.90;;;;;;4971875;28;20447;-78
2023/10/29 04:38:54;;;;;;;1.97;1.87;;;19.20;73.80;;;;;;4969804;28;20442;-78
2023/10/29 04:41:22;;;;;;;2.30;2.20;;;19.20;73.70;;;;;;4970083;28;20442;-78
2023/10/29 04:43:50;;;;;;;2.43;1.90;;;19.20;73.70;;;;;;4974315;28;20497;-78
2023/10/29 04:46:19;;;;;;;2.13;2.03;;;19.20;73.50;;;;;;4975649;28;20462;-79
2023/10/29 04:48:47;;;;;;;3.70;2.30;;;19.20;73.70;;;;;;4967456;28;20931;-79
2023/10/29 04:51:15;;;;;;;2.13;2.03;;;19.20;73.70;;;;;;4968423;28;20448;-78
2023/10/29 04:53:43;;;;;;;1.80;1.70;;;19.20;73.50;;;;;;4973880;28;20466;-79
2023/10/29 04:56:13;;;;;;;2.50;2.20;;;19.20;73.60;;;;;;4970435;28;20520;-78
2023/10/29 04:58:41;;;;;;;3.00;2.23;;;19.20;73.60;;;;;;4972947;28;20477;-78
2023/10/29 05:01:10;;;;;;;2.30;2.07;;;19.30;73.50;;;;;;4978259;28;20538;-78
2023/10/29 05:03:40;;;;;;;2.20;2.10;;;19.20;73.80;;;;;;4973113;28;20621;-78
2023/10/29 05:06:08;;;;;;;2.10;2.00;;;19.20;73.70;;;;;;4967721;28;20439;-78
2023/10/29 05:08:39;;;;;;;1.90;1.80;;;19.30;73.80;;;;;;4968027;28;20448;-78
2023/10/29 05:11:07;;;;;;;2.20;2.10;;;19.30;73.60;;;;;;4963472;28;20458;-79
2023/10/29 05:13:40;;;;;;;2.33;1.90;;;19.20;73.80;;;;;;4974491;28;20446;-79
2023/10/29 05:16:12;;;;;;;1.93;1.83;;;19.30;74.00;;;;;;4977534;28;20450;-80
2023/10/29 05:18:43;;;;;;;2.20;2.00;;;19.20;73.70;;;;;;4978092;28;20450;-80
2023/10/29 05:21:11;;;;;;;2.20;2.10;;;19.20;73.90;;;;;;4969433;28;20451;-80
2023/10/29 05:23:40;;;;;;;1.90;1.80;;;19.30;73.80;;;;;;4973258;28;20459;-80
2023/10/29 05:26:10;;;;;;;3.13;2.10;;;19.30;73.90;;;;;;4967953;28;20474;-79
2023/10/29 05:28:42;;;;;;;2.00;1.90;;;19.30;73.90;;;;;;4972233;28;20447;-78
2023/10/29 05:31:11;;;;;;;2.00;1.90;;;19.30;73.90;;;;;;4969673;28;20510;-79
2023/10/29 05:33:41;;;;;;;2.00;1.90;;;19.30;73.70;;;;;;4977471;28;20454;-80
2023/10/29 05:36:11;;;;;;;1.60;1.50;;;19.30;73.90;;;;;;4972543;28;20462;-80
2023/10/29 05:38:39;;;;;;;1.97;1.40;;;19.30;73.90;;;;;;4975334;28;20461;-79
2023/10/29 05:41:08;;;;;;;2.23;1.53;;;19.30;73.90;;;;;;4969100;28;20455;-77
2023/10/29 05:43:37;;;;;;;1.90;1.80;;;19.30;73.70;;;;;;4958811;28;20443;-77
2023/10/29 05:46:06;;;;;;;4.50;1.70;;;19.30;74.00;;;;;;4959410;28;20455;-77
2023/10/29 05:48:35;;;;;;;1.70;1.60;;;19.30;74.10;;;;;;4964702;28;20459;-78
2023/10/29 05:51:04;;;;;;;4.57;1.83;;;19.30;74.10;;;;;;4956264;28;21005;-77
2023/10/29 05:53:32;;;;;;;4.33;1.90;;;19.30;74.10;;;;;;4958632;28;20449;-77
2023/10/29 05:56:00;;;;;;;1.97;1.77;;;19.30;73.70;;;;;;4956016;28;20442;-78
2023/10/29 05:58:28;;;;;;;2.00;1.90;;;19.30;74.10;;;;;;4958249;28;20507;-77
2023/10/29 06:00:56;;;;;;;1.83;1.73;;;19.30;74.00;;;;;;4959223;28;20495;-77
2023/10/29 06:03:26;;;;;;;1.60;1.50;;;19.30;74.10;;;;;;4957105;28;20478;-77
2023/10/29 06:05:55;;;;;;;1.80;1.70;;;19.30;74.10;;;;;;4967392;28;20481;-78
2023/10/29 06:08:24;;;;;;;1.40;1.30;;;19.30;74.00;;;;;;4971976;28;20455;-78
2023/10/29 06:10:55;;;;;;;1.67;1.50;;;19.30;74.20;;;;;;4968782;28;20447;-78
2023/10/29 06:13:24;;;;;;;1.70;1.60;;;19.30;74.00;;;;;;4963689;28;20475;-79
2023/10/29 06:15:52;;;;;;;2.13;1.60;;;19.30;74.00;;;;;;4969144;28;20446;-78
2023/10/29 06:18:21;;;;;;;1.80;1.70;;;19.30;74.00;;;;;;4967003;28;20470;-78
2023/10/29 06:20:52;;;;;;;1.57;1.47;;;19.30;73.90;;;;;;4974761;28;20515;-79
2023/10/29 06:23:21;;;;;;;1.73;1.50;;;19.30;74.20;;;;;;4971708;28;20475;-80
2023/10/29 06:25:54;;;;;;;1.80;1.70;;;19.30;74.00;;;;;;4970935;28;20470;-80
2023/10/29 06:28:22;;;;;;;2.03;1.80;;;19.30;74.10;;;;;;4968803;28;20443;-80
2023/10/29 06:30:50;;;;;;;1.43;1.43;;;19.30;74.10;;;;;;4964860;28;20510;-80
2023/10/29 06:33:18;;;;;;;1.50;1.40;;;19.30;74.10;;;;;;4965033;28;20463;-79
2023/10/29 06:35:46;;;;;;;2.30;1.40;;;19.30;74.00;;;;;;4966715;28;20439;-80
2023/10/29 06:38:16;;;;;;;4.87;1.90;;;19.40;74.10;;;;;;4975347;28;20455;-81
2023/10/29 06:40:46;;;;;;;2.33;1.70;;;19.40;74.20;;;;;;4978053;28;20438;-79
2023/10/29 06:43:16;;;;;;;1.20;1.10;;;19.40;74.20;;;;;;4977092;28;20451;-80
2023/10/29 06:45:44;;;;;;;1.60;1.50;;;19.30;74.10;;;;;;4968773;28;20483;-81
2023/10/29 06:48:12;;;;;;;1.83;1.60;;;19.40;74.20;;;;;;4977444;28;20450;-81
2023/10/29 06:50:42;;;;;;;1.70;1.60;;;19.40;74.50;;;;;;4977950;28;20958;-81
2023/10/29 06:53:15;;;;;;;1.60;1.30;;;19.40;74.20;;;;;;4971476;28;20471;-81
2023/10/29 06:55:50;;;;;;;2.90;1.50;;;19.40;74.10;;;;;;4975989;28;20447;-82
2023/10/29 06:58:18;;;;;;;1.50;1.40;;;19.40;74.50;;;;;;4969601;29;20461;-81
2023/10/29 07:00:47;;;;;;;1.30;1.27;;;19.40;74.30;;;;;;4968524;28;20443;-79
2023/10/29 07:03:15;;;;;;;1.63;1.27;;;19.40;74.30;;;;;;4972642;28;20471;-80
2023/10/29 07:05:43;;;;;;;1.50;1.20;;;19.40;74.40;;;;;;4970392;28;20482;-80
2023/10/29 07:08:14;;;;;;;1.30;1.10;;;19.40;74.30;;;;;;4976612;28;20454;-79
2023/10/29 07:10:46;;;;;;;2.30;1.30;;;19.50;74.40;;;;;;4975498;28;20484;-79
2023/10/29 07:13:18;;;;;;;1.57;1.30;;;19.50;74.50;;;;;;4969641;28;20510;-79
2023/10/29 07:15:46;;;;;;;1.90;1.20;;;19.50;74.30;;;;;;4956077;28;20422;-79
2023/10/29 07:18:14;;;;;;;1.40;1.30;;;19.50;74.40;;;;;;4956490;28;20443;-79
2023/10/29 07:20:42;;;;;;;1.50;1.40;;;19.50;74.20;;;;;;4957004;28;20451;-79
2023/10/29 07:23:13;;;;;;;2.27;1.47;;;19.50;74.20;;;;;;4966764;28;20489;-80
2023/10/29 07:25:42;;;;;;;1.40;1.30;;;19.50;74.40;;;;;;4970817;28;20470;-80
2023/10/29 07:28:11;;;;;;;1.03;0.93;;;19.60;74.50;;;;;;4975045;28;20451;-81
2023/10/29 07:30:45;;;;;;;2.40;1.33;;;19.60;74.40;;;;;;4968653;28;20455;-81
2023/10/29 07:33:19;;;;;;;1.53;1.43;;;19.60;74.30;;;;;;4973219;28;20510;-82
2023/10/29 07:35:48;;;;;;;1.10;1.00;;;19.60;74.30;;;;;;4975716;28;20450;-81
2023/10/29 07:38:16;;;;;;;1.90;1.53;;;19.70;74.10;;;;;;4976910;28;20470;-82
2023/10/29 07:40:44;;;;;;;1.17;1.07;;;19.70;73.90;;;;;;4965792;28;20478;-82
2023/10/29 07:43:17;;;;;;;1.20;1.10;;;19.70;73.90;;;;;;4971282;28;20466;-80
2023/10/29 07:45:47;;;;;;;1.23;1.20;;;19.80;74.00;;;;;;4968974;29;20482;-80
2023/10/29 07:48:17;;;;;;;1.37;1.23;;;19.80;73.80;;;;;;4966077;28;20478;-79
2023/10/29 07:50:50;;;;;;;1.33;1.23;;;19.70;73.60;;;;;;4969782;28;20534;-81
2023/10/29 07:53:18;;;;;;;1.10;1.07;;;19.80;74.20;;;;;;4971019;28;20509;-80
2023/10/29 07:55:47;;;;;;;1.00;1.00;;;19.80;74.20;;;;;;4967947;28;20447;-80
2023/10/29 07:58:16;;;;;;;2.13;1.30;;;19.80;74.20;;;;;;4968763;28;21009;-80
2023/10/29 08:00:44;;;;;;;1.70;1.00;;;19.80;74.90;;;;;;4957092;28;20455;-79
2023/10/29 08:03:13;;;;;;;1.10;1.10;;;19.80;74.00;;;;;;4969902;28;20477;-79
2023/10/29 08:05:51;;;;;;;1.60;1.20;;;19.90;74.00;;;;;;4972238;29;20478;-81
2023/10/29 08:08:25;;;;;;;1.43;1.20;;;19.90;74.00;;;;;;4972162;28;20455;-80
2023/10/29 08:10:59;;;;;;;1.93;1.10;;;19.90;74.00;;;;;;4972036;28;20445;-81
2023/10/29 08:13:40;;;;;;;1.10;1.00;;;19.80;74.10;;;;;;4982296;28;20480;-82
2023/10/29 08:16:15;;;;;;;5.23;1.50;;;19.90;74.30;;;;;;4984096;28;20449;-81
2023/10/29 08:18:47;;;;;;;1.30;1.20;;;19.90;74.10;;;;;;4978063;28;20457;-81
2023/10/29 08:21:46;;;;;;;1.30;1.20;;;19.90;74.20;;;;;;4979694;28;20454;-81
2023/10/29 08:24:21;;;;;;;1.17;1.00;;;20.00;74.40;;;;;;4977656;28;20473;-82
2023/10/29 08:26:49;;;;;;;1.40;1.00;;;20.00;74.30;;;;;;4972215;28;20454;-83
2023/10/29 08:29:21;;;;;;;1.53;1.43;;;20.10;74.20;;;;;;4972672;28;20467;-81
2023/10/29 08:31:58;;;;;;;1.43;1.20;;;20.10;73.80;;;;;;4972543;28;20481;-82
2023/10/29 08:34:35;;;;;;;1.27;1.17;;;20.10;73.90;;;;;;4980719;28;20457;-80
2023/10/29 08:37:05;;;;;;;1.60;1.13;;;20.10;73.70;;;;;;4981595;28;20456;-81
2023/10/29 08:39:40;;;;;;;2.70;1.07;;;20.10;73.50;;;;;;4974218;28;20475;-81
2023/10/29 08:42:32;;;;;;;3.80;1.20;;;20.20;73.70;;;;;;4973877;28;20441;-81
2023/10/29 08:45:19;;;;;;;1.00;1.00;;;20.30;74.30;;;;;;4973476;28;20478;-83
2023/10/29 08:48:45;;;;;;;1.33;1.23;;;20.50;74.70;;;;;;4976676;28;20471;-82
2023/10/29 08:51:31;;;;;;;1.30;1.20;;;20.80;75.40;;;;;;4974851;28;20447;-81
2023/10/29 08:54:20;;;;;;;2.80;1.00;;;21.10;75.20;;;;;;4972301;28;20457;-82
2023/10/29 08:57:14;;;;;;;2.20;1.23;;;21.40;75.40;;;;;;4974899;28;20443;-82
2023/10/29 08:59:54;;;;;;;1.20;1.10;;;21.50;74.40;;;;;;4971081;28;20514;-80
2023/10/29 09:05:43;;;;;;;1.43;1.20;;;21.90;75.10;;;;;;4970949;28;20417;-82
2023/10/29 09:12:10;;;;;;;1.20;1.00;;;22.40;75.10;;;;;;4972200;29;20458;-81
2023/10/29 09:14:46;;;;;;;3.17;1.63;;;22.70;74.80;;;;;;4967419;28;20451;-81
2023/10/29 09:21:12;;;;;;;4.80;1.37;;;23.20;74.40;;;;;;4966922;29;20443;-82
2023/10/29 09:23:43;;;;;;;2.47;1.13;;;23.50;74.30;;;;;;4969813;29;20433;-80
2023/10/29 09:26:36;;;;;;;1.20;1.03;;;23.60;73.90;;;;;;4978387;28;20443;-80
2023/10/29 09:29:20;;;;;;;1.57;1.10;;;23.80;73.80;;;;;;4972705;28;20450;-81
2023/10/29 09:31:59;;;;;;;0.90;0.90;;;24.10;73.50;;;;;;4964316;28;20446;-81
2023/10/29 09:34:37;;;;;;;2.40;1.00;;;24.30;73.40;;;;;;4971008;28;20455;-80
2023/10/29 09:37:08;;;;;;;1.10;1.00;;;24.50;73.10;;;;;;4968666;28;20422;-81
2023/10/29 09:39:37;;;;;;;1.13;1.00;;;24.70;73.10;;;;;;4960563;28;20432;-76
2023/10/29 09:42:08;;;;;;;2.80;1.40;;;23.90;60.50;;;;;;4946292;28;20543;-76
2023/10/29 09:44:38;;;;;;;2.60;1.10;;;21.60;65.10;;;;;;4956763;28;20515;-76
2023/10/29 09:47:11;;;;;;;1.30;1.07;;;20.00;66.60;;;;;;4956724;28;20479;-76
2023/10/29 09:49:44;;;;;;;1.93;1.00;;;19.80;69.40;;;;;;4957147;29;20522;-76
2023/10/29 09:52:12;;;;;;;2.37;1.20;;;19.30;71.70;;;;;;4968793;28;20471;-81
2023/10/29 09:58:10;;;;;;;9.50;1.10;;;21.60;70.90;;;;;;4947785;28;20405;-82
2023/10/29 10:00:48;;;;;;;2.70;1.00;;;22.60;67.60;;;;;;4968072;28;20508;-82
2023/10/29 10:03:21;;;;;;;3.90;0.90;;;23.20;66.40;;;;;;4984058;28;20445;-82
2023/10/29 10:05:57;;;;;;;4.63;1.00;;;23.80;65.40;;;;;;4972776;28;20533;-82
2023/10/29 10:08:28;;;;;;;1.57;0.90;;;24.30;64.30;;;;;;4970471;29;20506;-81
2023/10/29 10:11:02;;;;;;;4.43;1.40;;;24.70;63.00;;;;;;4969290;29;20421;-82
2023/10/29 10:13:41;;;;;;;1.03;0.93;;;24.90;62.00;;;;;;4978312;28;20422;-82
2023/10/29 10:16:22;;;;;;;4.97;0.97;;;25.00;61.80;;;;;;4965644;28;20462;-82
2023/10/29 10:18:54;;;;;;;3.87;1.13;;;25.20;61.70;;;;;;4971062;28;20480;-81
2023/10/29 10:21:27;;;;;;;1.47;1.20;;;25.30;61.20;;;;;;4971847;28;20431;-81
2023/10/29 10:23:58;;;;;;;1.07;0.97;;;25.30;61.10;;;;;;4979759;28;20433;-79
2023/10/29 10:26:34;;;;;;;2.50;1.00;;;25.30;60.80;;;;;;4975563;28;20463;-81
2023/10/29 10:29:08;;;;;;;3.07;0.97;;;25.30;60.80;;;;;;4970466;28;20463;-82
2023/10/29 10:31:36;;;;;;;3.23;0.87;;;25.20;61.20;;;;;;4963894;28;20456;-81
2023/10/29 10:34:12;;;;;;;3.07;0.80;;;25.10;61.10;;;;;;4976709;28;20429;-81
2023/10/29 10:36:42;;;;;;;1.53;0.93;;;25.10;61.40;;;;;;4957348;28;20434;-80
2023/10/29 10:39:17;;;;;;;2.50;1.00;;;25.00;61.50;;;;;;4971488;28;20457;-81
2023/10/29 10:41:49;;;;;;;4.50;0.90;;;24.90;61.60;;;;;;4956956;29;20471;-81
2023/10/29 10:44:20;;;;;;;1.30;1.10;;;24.80;61.80;;;;;;4964483;28;20445;-80
2023/10/29 10:46:49;;;;;;;2.13;1.10;;;24.70;61.90;;;;;;4967549;28;20455;-81
2023/10/29 10:49:24;;;;;;;1.27;1.00;;;24.70;62.40;;;;;;4969495;28;20458;-80
2023/10/29 10:52:04;;;;;;;2.60;1.23;;;24.70;62.40;;;;;;4958781;28;20443;-81
2023/10/29 10:54:39;;;;;;;4.60;1.03;;;24.80;63.20;;;;;;4943888;29;20418;-81
2023/10/29 10:57:07;;;;;;;2.30;1.20;;;24.90;62.30;;;;;;4977122;28;20410;-80
2023/10/29 10:59:35;;;;;;;2.60;1.20;;;25.00;62.90;;;;;;4977591;28;20458;-82
2023/10/29 11:02:05;;;;;;;1.57;1.20;;;25.30;62.60;;;;;;4966102;28;20530;-82
2023/10/29 11:04:38;;;;;;;1.30;1.20;;;25.60;62.90;;;;;;4967074;28;20473;-81
2023/10/29 11:07:08;;;;;;;5.20;1.80;;;25.90;62.00;;;;;;4959125;28;20472;-79
2023/10/29 11:09:38;;;;;;;2.60;1.27;;;26.00;60.40;;;;;;4966741;28;20429;-82
2023/10/29 11:12:08;;;;;;;2.73;1.40;;;26.20;61.10;;;;;;4967749;28;20466;-80
2023/10/29 11:14:47;;;;;;;6.30;1.70;;;26.50;60.40;;;;;;4969847;28;20447;-81
2023/10/29 11:17:22;;;;;;;2.23;1.30;;;26.80;59.80;;;;;;4973029;28;20796;-81
2023/10/29 11:19:56;;;;;;;2.77;1.10;;;27.20;58.80;;;;;;4971817;28;20444;-81
2023/10/29 11:23:06;;;;;;;2.00;1.23;;;27.40;58.00;;;;;;4966766;28;20446;-82
2023/10/29 11:25:42;;;;;;;1.90;1.30;;;27.50;57.40;;;;;;4964413;28;20489;-83
2023/10/29 11:28:41;;;;;;;1.53;1.43;;;27.70;57.20;;;;;;4965721;29;20450;-80
2023/10/29 11:31:13;;;;;;;1.67;1.00;;;27.70;56.70;;;;;;4963038;28;20518;-81
2023/10/29 11:33:42;;;;;;;2.87;1.47;;;27.80;56.70;;;;;;4959870;28;20443;-81
2023/10/29 11:36:34;;;;;;;2.77;1.80;;;27.90;56.00;;;;;;4966261;28;20451;-80
2023/10/29 11:39:32;;;;;;;2.90;1.30;;;27.90;55.70;;;;;;4964478;28;20414;-80
2023/10/29 11:42:00;;;;;;;1.87;1.30;;;27.80;55.70;;;;;;4967908;28;20448;-78
2023/10/29 11:44:29;;;;;;;1.77;1.07;;;27.50;55.50;;;;;;4969371;29;20458;-80
2023/10/29 11:47:07;;;;;;;1.33;1.20;;;27.30;55.60;;;;;;4971879;28;20463;-80
2023/10/29 11:50:13;;;;;;;1.43;1.33;;;27.10;56.00;;;;;;4971470;28;20421;-79
2023/10/29 11:52:42;;;;;;;13.70;1.80;;;26.90;56.40;;;;;;4956883;28;20471;-78
2023/10/29 11:55:13;;;;;;;5.10;1.23;;;26.60;55.30;;;;;;4957288;28;20513;-77
2023/10/29 11:57:46;;;;;;;4.80;1.50;;;26.50;55.50;;;;;;4959225;28;20421;-77
2023/10/29 12:00:15;;;;;;;3.07;1.23;;;26.70;55.90;;;;;;4964837;28;20530;-77
2023/10/29 12:02:46;;;;;;;10.60;1.90;;;27.10;54.60;;;;;;4950919;28;20543;-77
2023/10/29 12:05:16;;;;;;;5.97;1.47;;;27.40;53.60;;;;;;4954510;28;20458;-77
2023/10/29 12:07:45;;;;;;;2.97;1.40;;;28.00;52.70;;;;;;4957858;29;20502;-77
2023/10/29 12:10:14;;;;;;;2.10;1.20;;;28.40;51.10;;;;;;4956370;28;20452;-76
2023/10/29 12:12:43;;;;;;;5.33;1.77;;;28.70;50.50;;;;;;4961650;28;20934;-76
2023/10/29 12:15:15;;;;;;;6.80;1.70;;;29.00;49.60;;;;;;4957360;28;20486;-76
2023/10/29 12:17:45;;;;;;;8.77;1.10;;;29.20;49.70;;;;;;4967054;28;20441;-76
2023/10/29 12:20:21;;;;;;;3.27;1.40;;;29.20;49.20;;;;;;4965059;28;20454;-76
2023/10/29 12:22:53;;;;;;;2.20;1.27;;;29.10;50.00;;;;;;4967138;28;20476;-77
2023/10/29 12:25:23;;;;;;;2.90;1.40;;;29.30;49.80;;;;;;4958496;29;20541;-77
2023/10/29 12:27:51;;;;;;;1.20;1.10;;;29.40;49.40;;;;;;4949867;28;20509;-77
2023/10/29 12:30:35;;;;;;;3.73;1.07;;;29.40;48.90;;;;;;4958848;28;20519;-77
2023/10/29 12:33:17;;;;;;;7.70;1.37;;;29.30;49.50;;;;;;4956470;28;20999;-76
2023/10/29 12:35:47;;;;;;;3.53;1.20;;;29.00;49.90;;;;;;4948622;29;20511;-76
2023/10/29 12:38:15;;;;;;;4.00;1.20;;;28.90;50.10;;;;;;4956527;28;20498;-77
2023/10/29 12:41:08;;;;;;;2.47;1.10;;;28.70;50.20;;;;;;4957752;29;20439;-77
2023/10/29 12:43:37;;;;;;;1.17;1.07;;;28.40;51.40;;;;;;4957475;28;20431;-76
2023/10/29 12:46:05;;;;;;;1.47;1.30;;;28.30;51.60;;;;;;4963024;28;20511;-77
2023/10/29 12:48:34;;;;;;;5.80;1.30;;;28.20;51.60;;;;;;4964836;28;21019;-77
2023/10/29 12:51:03;;;;;;;3.43;1.30;;;28.10;52.10;;;;;;4953077;29;20449;-76
2023/10/29 12:53:31;;;;;;;5.07;1.50;;;27.90;52.30;;;;;;4955060;28;20424;-76
2023/10/29 12:56:00;;;;;;;5.07;1.47;;;27.80;52.60;;;;;;4957108;28;20534;-76
2023/10/29 12:58:29;;;;;;;1.73;1.20;;;27.70;53.40;;;;;;4953475;29;20437;-76
2023/10/29 13:01:00;;;;;;;2.50;1.20;;;27.50;53.80;;;;;;4956660;29;20717;-77
2023/10/29 13:03:28;;;;;;;1.77;1.30;;;27.30;53.70;;;;;;4955989;28;20448;-77
2023/10/29 13:05:56;;;;;;;5.60;1.33;;;27.20;54.00;;;;;;4949474;29;20449;-77
2023/10/29 13:08:25;;;;;;;6.63;1.20;;;27.10;54.30;;;;;;4954779;28;20545;-78
2023/10/29 13:10:53;;;;;;;2.73;1.40;;;27.00;54.40;;;;;;4964794;28;20424;-77
2023/10/29 13:13:23;;;;;;;3.57;1.10;;;27.00;54.80;;;;;;4957450;28;20524;-76
2023/10/29 13:15:53;;;;;;;2.57;1.40;;;26.80;54.90;;;;;;4957269;29;20472;-78
2023/10/29 13:18:22;;;;;;;3.80;1.33;;;26.70;55.10;;;;;;4957437;29;20437;-76
2023/10/29 13:20:58;;;;;;;1.70;1.47;;;26.80;55.30;;;;;;4958442;28;20537;-76
2023/10/29 13:23:26;;;;;;;4.57;1.60;;;26.80;55.20;;;;;;4971267;28;20426;-76